sensor_id;sensor_type;location;lat;lon;timestamp;pressure;altitude;pressure_sealevel;temperature;humidity
78073;BME280;67281;48.770;11.440;2023-09-19T00:00:44;96870.41;;;22.91;56.94
78073;BME280;67281;48.770;11.440;2023-09-19T00:03:14;96878.41;;;22.91;57.01
78073;BME280;67281;48.770;11.440;2023-09-19T00:05:41;96867.72;;;22.91;56.88
78073;BME280;67281;48.770;11.440;2023-09-19T00:08:12;96872.63;;;22.87;56.87
78073;BME280;67281;48.770;11.440;2023-09-19T00:10:43;96869.75;;;22.89;57.31
78073;BME280;67281;48.770;11.440;2023-09-19T00:13:10;96875.31;;;22.87;56.91
78073;BME280;67281;48.770;11.440;2023-09-19T00:15:46;96869.13;;;22.87;57.10
78073;BME280;67281;48.770;11.440;2023-09-19T00:18:18;96864.19;;;22.84;56.74
78073;BME280;67281;48.770;11.440;2023-09-19T00:20:49;96866.84;;;22.84;56.88
78073;BME280;67281;48.770;11.440;2023-09-19T00:23:19;96867.66;;;22.84;57.12
78073;BME280;67281;48.770;11.440;2023-09-19T00:25:47;96870.34;;;22.84;56.78
78073;BME280;67281;48.770;11.440;2023-09-19T00:28:14;96870.53;;;22.83;56.71
78073;BME280;67281;48.770;11.440;2023-09-19T00:30:44;96864.38;;;22.82;56.99
78073;BME280;67281;48.770;11.440;2023-09-19T00:33:12;96868.06;;;22.81;56.63
78073;BME280;67281;48.770;11.440;2023-09-19T00:35:50;96865.94;;;22.77;57.37
78073;BME280;67281;48.770;11.440;2023-09-19T00:38:21;96866.75;;;22.77;57.47
78073;BME280;67281;48.770;11.440;2023-09-19T00:40:50;96873.75;;;22.78;57.08
78073;BME280;67281;48.770;11.440;2023-09-19T00:43:20;96864.28;;;22.76;56.83
78073;BME280;67281;48.770;11.440;2023-09-19T00:45:51;96868.34;;;22.72;57.38
78073;BME280;67281;48.770;11.440;2023-09-19T00:48:19;96865.50;;;22.73;56.98
78073;BME280;67281;48.770;11.440;2023-09-19T00:50:48;96869.00;;;22.74;57.26
78073;BME280;67281;48.770;11.440;2023-09-19T00:53:18;96873.91;;;22.70;56.67
78073;BME280;67281;48.770;11.440;2023-09-19T00:55:46;96873.63;;;22.65;57.16
78073;BME280;67281;48.770;11.440;2023-09-19T00:58:17;96878.59;;;22.68;57.03
78073;BME280;67281;48.770;11.440;2023-09-19T01:00:44;96877.78;;;22.68;56.99
78073;BME280;67281;48.770;11.440;2023-09-19T01:03:11;96884.97;;;22.67;56.98
78073;BME280;67281;48.770;11.440;2023-09-19T01:05:40;96887.63;;;22.67;56.49
78073;BME280;67281;48.770;11.440;2023-09-19T01:08:07;96888.00;;;22.64;56.96
78073;BME280;67281;48.770;11.440;2023-09-19T01:10:35;96889.22;;;22.61;56.58
78073;BME280;67281;48.770;11.440;2023-09-19T01:13:15;96892.09;;;22.60;56.57
78073;BME280;67281;48.770;11.440;2023-09-19T01:16:03;96901.94;;;22.59;56.83
78073;BME280;67281;48.770;11.440;2023-09-19T01:19:07;96893.94;;;22.59;56.83
78073;BME280;67281;48.770;11.440;2023-09-19T01:30:24;96901.13;;;22.59;57.21
78073;BME280;67281;48.770;11.440;2023-09-19T01:32:52;96896.72;;;22.51;56.54
78073;BME280;67281;48.770;11.440;2023-09-19T01:35:19;96899.03;;;22.54;57.25
78073;BME280;67281;48.770;11.440;2023-09-19T01:37:46;96897.16;;;22.55;56.85
78073;BME280;67281;48.770;11.440;2023-09-19T01:40:15;96904.56;;;22.53;56.68
78073;BME280;67281;48.770;11.440;2023-09-19T01:51:05;96912.69;;;22.45;56.82
78073;BME280;67281;48.770;11.440;2023-09-19T01:56:11;96914.91;;;22.41;57.24
78073;BME280;67281;48.770;11.440;2023-09-19T01:58:42;96909.19;;;22.44;57.28
78073;BME280;67281;48.770;11.440;2023-09-19T02:01:16;96912.44;;;22.40;56.69
78073;BME280;67281;48.770;11.440;2023-09-19T02:03:47;96903.03;;;22.44;56.46
78073;BME280;67281;48.770;11.440;2023-09-19T02:06:16;96911.78;;;22.38;57.19
78073;BME280;67281;48.770;11.440;2023-09-19T02:08:45;96927.81;;;22.38;56.53
78073;BME280;67281;48.770;11.440;2023-09-19T02:11:12;96908.94;;;22.39;57.23
78073;BME280;67281;48.770;11.440;2023-09-19T02:13:39;96915.28;;;22.38;56.55
78073;BME280;67281;48.770;11.440;2023-09-19T02:16:09;96925.13;;;22.38;57.21
78073;BME280;67281;48.770;11.440;2023-09-19T02:18:38;96912.44;;;22.40;56.64
78073;BME280;67281;48.770;11.440;2023-09-19T02:21:06;96907.28;;;22.38;57.08
78073;BME280;67281;48.770;11.440;2023-09-19T02:23:33;96901.75;;;22.40;57.31
78073;BME280;67281;48.770;11.440;2023-09-19T02:26:00;96913.25;;;22.40;56.71
78073;BME280;67281;48.770;11.440;2023-09-19T02:28:33;96912.44;;;22.40;56.48
78073;BME280;67281;48.770;11.440;2023-09-19T02:31:01;96910.31;;;22.35;56.71
78073;BME280;67281;48.770;11.440;2023-09-19T02:33:28;96914.00;;;22.34;57.02
78073;BME280;67281;48.770;11.440;2023-09-19T02:35:59;96931.22;;;22.32;56.79
78073;BME280;67281;48.770;11.440;2023-09-19T02:38:28;96932.50;;;22.36;56.78
78073;BME280;67281;48.770;11.440;2023-09-19T02:40:56;96935.09;;;22.29;56.66
78073;BME280;67281;48.770;11.440;2023-09-19T02:43:23;96934.09;;;22.30;57.14
78073;BME280;67281;48.770;11.440;2023-09-19T02:45:50;96937.34;;;22.25;56.73
78073;BME280;67281;48.770;11.440;2023-09-19T02:48:20;96952.91;;;22.22;56.50
78073;BME280;67281;48.770;11.440;2023-09-19T02:50:49;96952.34;;;22.26;56.91
78073;BME280;67281;48.770;11.440;2023-09-19T02:53:16;96948.22;;;22.24;56.98
78073;BME280;67281;48.770;11.440;2023-09-19T02:55:43;96952.47;;;22.18;56.52
78073;BME280;67281;48.770;11.440;2023-09-19T02:58:10;96953.38;;;22.25;56.93
78073;BME280;67281;48.770;11.440;2023-09-19T03:00:38;96949.03;;;22.24;56.72
78073;BME280;67281;48.770;11.440;2023-09-19T03:03:05;96958.44;;;22.20;56.37
78073;BME280;67281;48.770;11.440;2023-09-19T03:05:33;96965.25;;;22.23;56.17
78073;BME280;67281;48.770;11.440;2023-09-19T03:08:00;96969.56;;;22.24;56.84
78073;BME280;67281;48.770;11.440;2023-09-19T03:10:27;96973.19;;;22.16;56.34
78073;BME280;67281;48.770;11.440;2023-09-19T03:12:56;96973.63;;;22.20;56.26
78073;BME280;67281;48.770;11.440;2023-09-19T03:15:23;96982.00;;;22.17;56.21
78073;BME280;67281;48.770;11.440;2023-09-19T03:17:50;96971.97;;;22.19;56.77
78073;BME280;67281;48.770;11.440;2023-09-19T03:20:20;96977.88;;;22.14;56.66
78073;BME280;67281;48.770;11.440;2023-09-19T03:22:47;96974.56;;;22.12;56.38
78073;BME280;67281;48.770;11.440;2023-09-19T03:25:15;96982.19;;;22.15;56.49
78073;BME280;67281;48.770;11.440;2023-09-19T03:27:44;96980.72;;;22.13;56.69
78073;BME280;67281;48.770;11.440;2023-09-19T03:30:11;96986.53;;;22.16;56.91
78073;BME280;67281;48.770;11.440;2023-09-19T03:32:44;96978.34;;;22.18;56.34
78073;BME280;67281;48.770;11.440;2023-09-19T03:35:12;96983.84;;;22.16;57.06
78073;BME280;67281;48.770;11.440;2023-09-19T03:37:41;96989.00;;;22.18;56.70
78073;BME280;67281;48.770;11.440;2023-09-19T03:40:10;96982.56;;;22.12;56.71
78073;BME280;67281;48.770;11.440;2023-09-19T03:42:41;96992.41;;;22.12;57.11
78073;BME280;67281;48.770;11.440;2023-09-19T03:45:08;96994.25;;;22.11;56.32
78073;BME280;67281;48.770;11.440;2023-09-19T03:47:40;96995.09;;;22.12;57.06
78073;BME280;67281;48.770;11.440;2023-09-19T03:50:07;96996.75;;;22.13;56.64
78073;BME280;67281;48.770;11.440;2023-09-19T03:52:35;96996.75;;;22.13;56.60
78073;BME280;67281;48.770;11.440;2023-09-19T03:55:01;96996.47;;;22.08;57.04
78073;BME280;67281;48.770;11.440;2023-09-19T03:57:32;97003.28;;;22.10;56.64
78073;BME280;67281;48.770;11.440;2023-09-19T03:59:59;96998.97;;;22.09;56.30
78073;BME280;67281;48.770;11.440;2023-09-19T04:02:26;97001.63;;;22.09;56.94
78073;BME280;67281;48.770;11.440;2023-09-19T04:04:59;96996.00;;;22.04;57.02
78073;BME280;67281;48.770;11.440;2023-09-19T04:07:26;96990.31;;;22.07;56.51
78073;BME280;67281;48.770;11.440;2023-09-19T04:09:55;96998.69;;;22.04;56.99
78073;BME280;67281;48.770;11.440;2023-09-19T04:12:22;96999.69;;;22.03;56.83
78073;BME280;67281;48.770;11.440;2023-09-19T04:14:49;96997.38;;;22.00;57.19
78073;BME280;67281;48.770;11.440;2023-09-19T04:17:16;96999.38;;;21.98;57.11
78073;BME280;67281;48.770;11.440;2023-09-19T04:19:45;96999.88;;;22.02;56.82
78073;BME280;67281;48.770;11.440;2023-09-19T04:22:12;97000.72;;;22.02;56.74
78073;BME280;67281;48.770;11.440;2023-09-19T04:24:39;97005.38;;;22.00;56.50
78073;BME280;67281;48.770;11.440;2023-09-19T04:27:07;97008.41;;;21.97;56.85
78073;BME280;67281;48.770;11.440;2023-09-19T04:29:34;97012.28;;;21.94;56.62
78073;BME280;67281;48.770;11.440;2023-09-19T04:32:01;97007.31;;;21.91;56.81
78073;BME280;67281;48.770;11.440;2023-09-19T04:34:33;97015.31;;;21.91;56.79
78073;BME280;67281;48.770;11.440;2023-09-19T04:37:01;97019.25;;;21.95;56.56
78073;BME280;67281;48.770;11.440;2023-09-19T04:39:28;97013.56;;;21.98;56.70
78073;BME280;67281;48.770;11.440;2023-09-19T04:41:55;97014.94;;;21.94;56.49
78073;BME280;67281;48.770;11.440;2023-09-19T04:44:23;97016.31;;;21.90;56.98
78073;BME280;67281;48.770;11.440;2023-09-19T04:46:50;97028.72;;;21.83;56.88
78073;BME280;67281;48.770;11.440;2023-09-19T04:49:17;97027.53;;;21.86;56.89
78073;BME280;67281;48.770;11.440;2023-09-19T04:51:45;97027.53;;;21.86;57.60
78073;BME280;67281;48.770;11.440;2023-09-19T04:54:13;97034.44;;;21.80;57.22
78073;BME280;67281;48.770;11.440;2023-09-19T04:56:42;97036.91;;;21.82;56.87
78073;BME280;67281;48.770;11.440;2023-09-19T04:59:09;97050.06;;;21.83;57.08
78073;BME280;67281;48.770;11.440;2023-09-19T05:01:37;97044.84;;;21.90;57.84
78073;BME280;67281;48.770;11.440;2023-09-19T05:04:04;97039.50;;;21.90;58.02
78073;BME280;67281;48.770;11.440;2023-09-19T05:06:32;97040.16;;;21.92;57.56
78073;BME280;67281;48.770;11.440;2023-09-19T05:09:00;97045.13;;;21.95;57.50
78073;BME280;67281;48.770;11.440;2023-09-19T05:11:27;97042.53;;;21.87;57.62
78073;BME280;67281;48.770;11.440;2023-09-19T05:13:57;97036.56;;;21.85;57.91
78073;BME280;67281;48.770;11.440;2023-09-19T05:16:24;97044.19;;;21.88;57.66
78073;BME280;67281;48.770;11.440;2023-09-19T05:18:51;97041.97;;;21.91;57.22
78073;BME280;67281;48.770;11.440;2023-09-19T05:21:18;97039.97;;;21.93;57.64
78073;BME280;67281;48.770;11.440;2023-09-19T05:23:45;97044.84;;;21.90;58.13
78073;BME280;67281;48.770;11.440;2023-09-19T05:26:12;97044.47;;;21.93;57.37
78073;BME280;67281;48.770;11.440;2023-09-19T05:28:39;97048.16;;;21.92;58.20
78073;BME280;67281;48.770;11.440;2023-09-19T05:31:06;97037.47;;;21.92;57.22
78073;BME280;67281;48.770;11.440;2023-09-19T05:33:33;97048.97;;;21.92;57.91
78073;BME280;67281;48.770;11.440;2023-09-19T05:36:00;97043.66;;;21.92;57.84
78073;BME280;67281;48.770;11.440;2023-09-19T05:38:27;97043.81;;;21.91;57.30
78073;BME280;67281;48.770;11.440;2023-09-19T05:40:54;97048.16;;;21.92;57.51
78073;BME280;67281;48.770;11.440;2023-09-19T05:43:21;97053.66;;;21.90;57.74
78073;BME280;67281;48.770;11.440;2023-09-19T05:45:48;97053.50;;;21.92;57.85
78073;BME280;67281;48.770;11.440;2023-09-19T05:48:18;97048.78;;;21.94;57.43
78073;BME280;67281;48.770;11.440;2023-09-19T05:50:48;97045.31;;;21.93;57.74
78073;BME280;67281;48.770;11.440;2023-09-19T05:53:15;97053.50;;;21.92;58.08
78073;BME280;67281;48.770;11.440;2023-09-19T05:55:42;97062.69;;;21.89;57.97
78073;BME280;67281;48.770;11.440;2023-09-19T05:58:10;97068.19;;;21.88;58.35
78073;BME280;67281;48.770;11.440;2023-09-19T06:00:37;97078.22;;;21.86;58.19
78073;BME280;67281;48.770;11.440;2023-09-19T06:03:06;97073.19;;;21.91;57.89
78073;BME280;67281;48.770;11.440;2023-09-19T06:05:33;97079.06;;;21.86;57.73
78073;BME280;67281;48.770;11.440;2023-09-19T06:08:00;97082.28;;;21.82;57.94
78073;BME280;67281;48.770;11.440;2023-09-19T06:10:27;97077.22;;;21.87;58.34
78073;BME280;67281;48.770;11.440;2023-09-19T06:12:54;97082.56;;;21.87;58.53
78073;BME280;67281;48.770;11.440;2023-09-19T06:15:21;97080.72;;;21.87;58.29
78073;BME280;67281;48.770;11.440;2023-09-19T06:17:55;97081.63;;;21.80;57.84
78073;BME280;67281;48.770;11.440;2023-09-19T06:20:24;97085.59;;;21.84;58.51
78073;BME280;67281;48.770;11.440;2023-09-19T06:22:52;97089.91;;;21.85;58.02
78073;BME280;67281;48.770;11.440;2023-09-19T06:25:19;97097.28;;;21.83;58.37
78073;BME280;67281;48.770;11.440;2023-09-19T06:27:51;97101.66;;;21.76;58.53
78073;BME280;67281;48.770;11.440;2023-09-19T06:30:22;97096.50;;;21.74;58.11
78073;BME280;67281;48.770;11.440;2023-09-19T06:32:56;97108.38;;;21.72;58.33
78073;BME280;67281;48.770;11.440;2023-09-19T06:35:25;97096.16;;;21.77;58.10
78073;BME280;67281;48.770;11.440;2023-09-19T06:37:54;97104.81;;;21.79;58.08
78073;BME280;67281;48.770;11.440;2023-09-19T06:40:25;97107.09;;;21.82;58.00
78073;BME280;67281;48.770;11.440;2023-09-19T06:42:53;97106.09;;;21.83;57.57
78073;BME280;67281;48.770;11.440;2023-09-19T06:45:20;97116.13;;;21.81;58.28
78073;BME280;67281;48.770;11.440;2023-09-19T06:47:50;97111.44;;;21.83;58.04
78073;BME280;67281;48.770;11.440;2023-09-19T06:50:19;97113.00;;;21.78;58.68
78073;BME280;67281;48.770;11.440;2023-09-19T06:52:47;97110.50;;;21.76;58.17
78073;BME280;67281;48.770;11.440;2023-09-19T06:55:17;97110.59;;;21.83;58.13
78073;BME280;67281;48.770;11.440;2023-09-19T06:57:47;97111.63;;;21.82;58.29
78073;BME280;67281;48.770;11.440;2023-09-19T07:00:15;97114.94;;;21.84;58.27
78073;BME280;67281;48.770;11.440;2023-09-19T07:02:54;97108.28;;;21.80;57.96
78073;BME280;67281;48.770;11.440;2023-09-19T07:05:21;97114.66;;;21.79;58.74
78073;BME280;67281;48.770;11.440;2023-09-19T07:07:48;97122.81;;;21.77;58.31
78073;BME280;67281;48.770;11.440;2023-09-19T07:10:16;97115.94;;;21.83;57.84
78073;BME280;67281;48.770;11.440;2023-09-19T07:12:43;97128.44;;;21.82;58.02
78073;BME280;67281;48.770;11.440;2023-09-19T07:15:10;97132.31;;;21.80;58.16
78073;BME280;67281;48.770;11.440;2023-09-19T07:17:37;97133.13;;;21.80;58.40
78073;BME280;67281;48.770;11.440;2023-09-19T07:20:04;97142.16;;;21.79;58.96
78073;BME280;67281;48.770;11.440;2023-09-19T07:22:34;97147.09;;;21.68;58.19
78073;BME280;67281;48.770;11.440;2023-09-19T07:25:03;97134.88;;;21.73;58.47
78073;BME280;67281;48.770;11.440;2023-09-19T07:27:30;97132.13;;;21.81;58.59
78073;BME280;67281;48.770;11.440;2023-09-19T07:29:56;97137.66;;;21.80;58.11
78073;BME280;67281;48.770;11.440;2023-09-19T07:32:23;97149.69;;;21.76;58.92
78073;BME280;67281;48.770;11.440;2023-09-19T07:34:51;97143.88;;;21.72;58.15
78073;BME280;67281;48.770;11.440;2023-09-19T07:37:17;97143.03;;;21.72;58.36
78073;BME280;67281;48.770;11.440;2023-09-19T07:39:44;97143.34;;;21.77;58.40
78073;BME280;67281;48.770;11.440;2023-09-19T07:42:11;97143.81;;;21.80;58.31
78073;BME280;67281;48.770;11.440;2023-09-19T07:44:44;97141.97;;;21.81;57.90
78073;BME280;67281;48.770;11.440;2023-09-19T07:47:14;97148.59;;;21.85;57.91
78073;BME280;67281;48.770;11.440;2023-09-19T07:49:41;97146.13;;;21.83;58.23
78073;BME280;67281;48.770;11.440;2023-09-19T07:52:09;97153.94;;;21.85;57.89
78073;BME280;67281;48.770;11.440;2023-09-19T07:54:37;97154.94;;;21.84;57.91
78073;BME280;67281;48.770;11.440;2023-09-19T07:57:05;97156.44;;;21.86;57.83
78073;BME280;67281;48.770;11.440;2023-09-19T07:59:32;97159.38;;;21.91;58.29
78073;BME280;67281;48.770;11.440;2023-09-19T08:01:59;97158.19;;;21.94;57.75
78073;BME280;67281;48.770;11.440;2023-09-19T08:04:27;97153.22;;;21.91;57.99
78073;BME280;67281;48.770;11.440;2023-09-19T08:06:57;97157.53;;;21.92;57.93
78073;BME280;67281;48.770;11.440;2023-09-19T08:09:27;97158.19;;;21.94;57.89
78073;BME280;67281;48.770;11.440;2023-09-19T08:11:54;97158.19;;;21.94;58.07
78073;BME280;67281;48.770;11.440;2023-09-19T08:14:21;97157.00;;;21.96;57.95
78073;BME280;67281;48.770;11.440;2023-09-19T08:16:49;97156.66;;;22.00;58.27
78073;BME280;67281;48.770;11.440;2023-09-19T08:19:16;97156.81;;;21.98;57.92
78073;BME280;67281;48.770;11.440;2023-09-19T08:21:43;97162.16;;;21.98;58.02
78073;BME280;67281;48.770;11.440;2023-09-19T08:24:13;97165.66;;;21.98;58.03
78073;BME280;67281;48.770;11.440;2023-09-19T08:26:41;97171.00;;;21.98;57.61
78073;BME280;67281;48.770;11.440;2023-09-19T08:29:08;97170.16;;;21.98;58.49
78073;BME280;67281;48.770;11.440;2023-09-19T08:31:38;97172.19;;;21.96;58.21
78073;BME280;67281;48.770;11.440;2023-09-19T08:34:05;97176.88;;;21.94;57.65
78073;BME280;67281;48.770;11.440;2023-09-19T08:36:32;97179.53;;;21.94;57.99
78073;BME280;67281;48.770;11.440;2023-09-19T08:38:59;97168.03;;;21.93;57.89
78073;BME280;67281;48.770;11.440;2023-09-19T08:41:26;97186.53;;;21.95;58.23
78073;BME280;67281;48.770;11.440;2023-09-19T08:43:52;97188.19;;;21.96;58.36
78073;BME280;67281;48.770;11.440;2023-09-19T08:46:20;97195.50;;;22.02;58.88
78073;BME280;67281;48.770;11.440;2023-09-19T08:49:00;97204.81;;;22.06;58.79
78073;BME280;67281;48.770;11.440;2023-09-19T08:51:35;97217.34;;;22.06;59.32
78073;BME280;67281;48.770;11.440;2023-09-19T08:54:07;97220.84;;;22.06;58.83
78073;BME280;67281;48.770;11.440;2023-09-19T08:56:34;97239.69;;;22.05;59.31
78073;BME280;67281;48.770;11.440;2023-09-19T08:59:03;97241.72;;;22.03;60.16
78073;BME280;67281;48.770;11.440;2023-09-19T09:01:31;97246.22;;;22.02;59.91
78073;BME280;67281;48.770;11.440;2023-09-19T09:04:01;97246.88;;;22.04;60.92
78073;BME280;67281;48.770;11.440;2023-09-19T09:06:29;97251.19;;;22.05;60.14
78073;BME280;67281;48.770;11.440;2023-09-19T09:08:57;97256.53;;;22.05;59.00
78073;BME280;67281;48.770;11.440;2023-09-19T09:11:24;97253.50;;;22.08;58.55
78073;BME280;67281;48.770;11.440;2023-09-19T09:13:54;97252.31;;;22.11;60.94
78073;BME280;67281;48.770;11.440;2023-09-19T09:16:21;97256.84;;;22.10;59.82
78073;BME280;67281;48.770;11.440;2023-09-19T09:18:53;97260.16;;;22.12;59.07
78073;BME280;67281;48.770;11.440;2023-09-19T09:21:22;97258.13;;;22.14;58.34
78073;BME280;67281;48.770;11.440;2023-09-19T09:23:51;97258.59;;;22.18;59.89
78073;BME280;67281;48.770;11.440;2023-09-19T09:29:06;97253.91;;;22.20;59.39
78073;BME280;67281;48.770;11.440;2023-09-19T09:31:32;97259.25;;;22.20;58.65
78073;BME280;67281;48.770;11.440;2023-09-19T09:34:00;97260.91;;;22.21;59.39
78073;BME280;67281;48.770;11.440;2023-09-19T09:36:38;97260.72;;;22.22;59.14
78073;BME280;67281;48.770;11.440;2023-09-19T09:39:05;97265.25;;;22.22;59.43
78073;BME280;67281;48.770;11.440;2023-09-19T09:41:43;97274.91;;;22.23;59.64
78073;BME280;67281;48.770;11.440;2023-09-19T09:44:14;97272.06;;;22.24;60.43
78073;BME280;67281;48.770;11.440;2023-09-19T09:46:45;97275.91;;;22.22;59.93
78073;BME280;67281;48.770;11.440;2023-09-19T09:49:23;97273.06;;;22.23;60.38
78073;BME280;67281;48.770;11.440;2023-09-19T09:52:05;97263.59;;;22.21;60.15
78073;BME280;67281;48.770;11.440;2023-09-19T09:54:37;97263.75;;;22.19;60.03
78073;BME280;67281;48.770;11.440;2023-09-19T09:57:07;97267.81;;;22.15;60.11
78073;BME280;67281;48.770;11.440;2023-09-19T09:59:50;97271.47;;;22.14;59.79
78073;BME280;67281;48.770;11.440;2023-09-19T10:02:19;97277.19;;;22.11;59.21
78073;BME280;67281;48.770;11.440;2023-09-19T10:04:53;97267.69;;;22.09;58.63
78073;BME280;67281;48.770;11.440;2023-09-19T10:07:31;97266.84;;;22.08;59.29
78073;BME280;67281;48.770;11.440;2023-09-19T10:10:10;97277.53;;;22.08;58.71
78073;BME280;67281;48.770;11.440;2023-09-19T10:12:47;97276.88;;;22.06;59.14
78073;BME280;67281;48.770;11.440;2023-09-19T10:15:17;97274.56;;;22.03;59.14
78073;BME280;67281;48.770;11.440;2023-09-19T10:17:47;97277.41;;;22.02;58.56
78073;BME280;67281;48.770;11.440;2023-09-19T10:20:16;97266.38;;;22.05;58.84
78073;BME280;67281;48.770;11.440;2023-09-19T10:23:11;97273.84;;;22.09;58.80
78073;BME280;67281;48.770;11.440;2023-09-19T10:25:43;97274.69;;;22.10;58.27
78073;BME280;67281;48.770;11.440;2023-09-19T10:28:14;97270.81;;;22.12;58.64
78073;BME280;67281;48.770;11.440;2023-09-19T10:30:43;97273.31;;;22.14;58.17
78073;BME280;67281;48.770;11.440;2023-09-19T10:33:18;97271.47;;;22.14;58.47
78073;BME280;67281;48.770;11.440;2023-09-19T10:35:50;97278.47;;;22.15;58.47
78073;BME280;67281;48.770;11.440;2023-09-19T10:38:24;97285.66;;;22.15;58.06
78073;BME280;67281;48.770;11.440;2023-09-19T10:40:53;97280.97;;;22.17;58.62
78073;BME280;67281;48.770;11.440;2023-09-19T10:43:25;97268.28;;;22.19;58.70
78073;BME280;67281;48.770;11.440;2023-09-19T10:45:53;97273.63;;;22.19;58.23
78073;BME280;67281;48.770;11.440;2023-09-19T10:48:23;97270.75;;;22.20;58.58
78073;BME280;67281;48.770;11.440;2023-09-19T10:51:15;97270.41;;;22.23;57.96
78073;BME280;67281;48.770;11.440;2023-09-19T10:54:06;97267.72;;;22.23;58.01
78073;BME280;67281;48.770;11.440;2023-09-19T10:56:47;97279.41;;;22.22;58.00
78073;BME280;67281;48.770;11.440;2023-09-19T10:59:19;97274.09;;;22.22;57.59
78073;BME280;67281;48.770;11.440;2023-09-19T11:04:23;97264.72;;;22.26;57.50
78073;BME280;67281;48.770;11.440;2023-09-19T11:07:12;97265.53;;;22.27;57.40
78073;BME280;67281;48.770;11.440;2023-09-19T11:14:58;97256.94;;;22.32;57.43
78073;BME280;67281;48.770;11.440;2023-09-19T11:17:38;97258.63;;;22.33;57.32
78073;BME280;67281;48.770;11.440;2023-09-19T11:30:34;97245.38;;;22.39;56.74
78073;BME280;67281;48.770;11.440;2023-09-19T11:33:22;97242.50;;;22.41;56.03
78073;BME280;67281;48.770;11.440;2023-09-19T11:36:06;97243.16;;;22.43;56.41
78073;BME280;67281;48.770;11.440;2023-09-19T11:46:27;97249.06;;;22.53;55.95
78073;BME280;67281;48.770;11.440;2023-09-19T11:49:07;97240.06;;;22.54;56.31
78073;BME280;67281;48.770;11.440;2023-09-19T11:51:41;97239.69;;;22.57;56.72
78073;BME280;67281;48.770;11.440;2023-09-19T11:54:11;97235.34;;;22.56;56.37
78073;BME280;67281;48.770;11.440;2023-09-19T11:56:52;97238.84;;;22.56;55.91
78073;BME280;67281;48.770;11.440;2023-09-19T11:59:25;97234.34;;;22.57;56.07
78073;BME280;67281;48.770;11.440;2023-09-19T12:02:00;97236.19;;;22.56;55.86
78073;BME280;67281;48.770;11.440;2023-09-19T12:04:37;97229.00;;;22.57;55.80
78073;BME280;67281;48.770;11.440;2023-09-19T12:09:48;97236.00;;;22.58;55.62
78073;BME280;67281;48.770;11.440;2023-09-19T12:12:20;97226.78;;;22.60;55.41
78073;BME280;67281;48.770;11.440;2023-09-19T12:14:48;97224.13;;;22.60;55.49
78073;BME280;67281;48.770;11.440;2023-09-19T12:17:16;97232.97;;;22.61;55.95
78073;BME280;67281;48.770;11.440;2023-09-19T12:19:56;97228.44;;;22.61;56.33
78073;BME280;67281;48.770;11.440;2023-09-19T12:22:24;97241.63;;;22.63;55.60
78073;BME280;67281;48.770;11.440;2023-09-19T12:24:51;97228.44;;;22.61;55.68
78073;BME280;67281;48.770;11.440;2023-09-19T12:27:21;97231.13;;;22.61;56.35
78073;BME280;67281;48.770;11.440;2023-09-19T12:29:49;97227.06;;;22.66;55.91
78073;BME280;67281;48.770;11.440;2023-09-19T12:32:16;97219.88;;;22.66;55.25
78073;BME280;67281;48.770;11.440;2023-09-19T12:34:52;97212.34;;;22.70;55.72
78073;BME280;67281;48.770;11.440;2023-09-19T12:37:21;97210.69;;;22.69;54.92
78073;BME280;67281;48.770;11.440;2023-09-19T12:39:51;97220.16;;;22.71;55.04
78073;BME280;67281;48.770;11.440;2023-09-19T12:42:24;97202.28;;;22.72;55.30
78073;BME280;67281;48.770;11.440;2023-09-19T12:44:56;97217.13;;;22.74;55.23
78073;BME280;67281;48.770;11.440;2023-09-19T12:47:24;97198.25;;;22.76;55.07
78073;BME280;67281;48.770;11.440;2023-09-19T12:52:51;97197.16;;;22.85;55.46
78073;BME280;67281;48.770;11.440;2023-09-19T12:55:29;97193.09;;;22.89;55.35
78073;BME280;67281;48.770;11.440;2023-09-19T12:58:08;97190.72;;;22.94;54.67
78073;BME280;67281;48.770;11.440;2023-09-19T13:00:40;97187.84;;;22.96;55.07
78073;BME280;67281;48.770;11.440;2023-09-19T13:05:54;97186.00;;;22.96;54.75
78073;BME280;67281;48.770;11.440;2023-09-19T13:11:17;97195.41;;;22.92;54.58
78073;BME280;67281;48.770;11.440;2023-09-19T13:13:51;97198.91;;;22.92;54.07
78073;BME280;67281;48.770;11.440;2023-09-19T13:16:22;97186.00;;;22.96;54.69
78073;BME280;67281;48.770;11.440;2023-09-19T13:18:53;97187.03;;;22.95;54.33
78073;BME280;67281;48.770;11.440;2023-09-19T13:21:31;97184.16;;;22.97;53.60
78073;BME280;67281;48.770;11.440;2023-09-19T13:24:25;97185.63;;;22.99;54.17
78073;BME280;67281;48.770;11.440;2023-09-19T13:26:56;97177.63;;;22.99;53.50
78073;BME280;67281;48.770;11.440;2023-09-19T13:29:24;97175.78;;;23.00;53.64
78073;BME280;67281;48.770;11.440;2023-09-19T13:31:52;97175.59;;;23.01;53.63
78073;BME280;67281;48.770;11.440;2023-09-19T13:34:22;97177.03;;;23.04;53.12
78073;BME280;67281;48.770;11.440;2023-09-19T13:36:49;97180.34;;;23.06;53.75
78073;BME280;67281;48.770;11.440;2023-09-19T13:39:16;97170.94;;;23.10;55.52
78073;BME280;67281;48.770;11.440;2023-09-19T13:41:45;97172.59;;;23.11;55.05
78073;BME280;67281;48.770;11.440;2023-09-19T13:44:14;97163.09;;;23.08;54.26
78073;BME280;67281;48.770;11.440;2023-09-19T13:46:41;97155.53;;;23.12;54.43
78073;BME280;67281;48.770;11.440;2023-09-19T13:49:13;97170.38;;;23.14;54.04
78073;BME280;67281;48.770;11.440;2023-09-19T13:51:40;97164.00;;;23.15;54.36
78073;BME280;67281;48.770;11.440;2023-09-19T13:54:11;97161.97;;;23.17;53.16
78073;BME280;67281;48.770;11.440;2023-09-19T13:56:41;97155.41;;;23.20;52.58
78073;BME280;67281;48.770;11.440;2023-09-19T13:59:08;97155.41;;;23.20;52.42
78073;BME280;67281;48.770;11.440;2023-09-19T14:01:35;97159.56;;;23.22;52.38
78073;BME280;67281;48.770;11.440;2023-09-19T14:04:02;97162.88;;;23.24;51.84